Friday, February 23, 2018, 7:16 AM EST
Back to Local

KPOU, Poughkeepsie Dutchess Cty

Location: Wappingers Falls, NY, United States Lat: 41.633
Local Time: 7:16 AM EST (12:16 GMT) Lon: -73.883
Time Zone: US/Eastern Elev: 167 ft

Show me the last for .
Show Decoded

2018-02-23 06:53 METAR KPOU 231153Z 36003KT 4SM BR OVC006 M01/M03 A3065 RMK AO2 SLP379 70023
                 T10111028 11011 21011 56005 =
2018-02-23 05:53 METAR KPOU 231053Z AUTO 01004KT 9SM OVC006 M01/M03 A3066 RMK AO2 SLP380
                 T10111028 =
2018-02-23 04:53 METAR KPOU 230953Z AUTO 36003KT 8SM OVC007 M01/M03 A3066 RMK AO2 SLP381
                 T10111028 =
2018-02-23 03:53 METAR KPOU 230853Z AUTO 35003KT 7SM OVC006 M01/M02 A3067 RMK AO2 SLP384
                 T10111022 55007 =
2018-02-23 02:53 METAR KPOU 230753Z AUTO 01004KT 6SM BR OVC005 M01/M02 A3065 RMK AO2 SLP380
                 T10111022 =
2018-02-23 01:53 METAR KPOU 230653Z AUTO 00000KT 9SM OVC006 M01/M02 A3068 RMK AO2 SLP389
                 T10111022 =
2018-02-23 00:53 METAR KPOU 230553Z AUTO 01006KT 10SM OVC006 M01/M02 A3069 RMK AO2 SLP390
                 T10111022 10006 21011 53003 =
2018-02-22 23:53 METAR KPOU 230453Z AUTO 34004KT 10SM BKN006 OVC046 M01/M02 A3069 RMK AO2 SLP390
                 T10061022 401001006 =
2018-02-22 23:42 METAR KPOU 230442Z AUTO VRB04KT 10SM BKN006 BKN018 OVC046 M01/M02 A3068 RMK AO2
                 T10061022 =
2018-02-22 22:53 METAR KPOU 230353Z AUTO 01004KT 10SM FEW006 OVC016 M01/M02 A3067 RMK AO2 SLP384
                 T10061017 =
2018-02-22 22:19 METAR KPOU 230319Z AUTO 35004KT 10SM FEW006 OVC016 M01/M02 A3070 RMK AO2
                 T10061017 =
2018-02-22 21:53 METAR KPOU 230253Z AUTO 35006KT 10SM OVC015 M01/M02 A3068 RMK AO2 SLP387
                 T10061017 53014 =
2018-02-22 20:53 METAR KPOU 230153Z AUTO 36004KT 10SM BKN017 00/M02 A3066 RMK AO2 SLP381
                 T00001017 =
2018-02-22 19:53 METAR KPOU 230053Z 33003KT 10SM CLR M01/M02 A3065 RMK AO2 SLP376 T10061017 =
2018-02-22 18:53 METAR KPOU 222353Z 00000KT 10SM FEW045 OVC075 01/M01 A3064 RMK AO2 SLP373 60021
                 T00061011 10022 20006 50001 =
2018-02-22 17:53 METAR KPOU 222253Z 02003KT 4SM BR BKN085 01/M01 A3066 RMK AO2 SNE49 SLP381 P0001
                 T00061011 =
2018-02-22 17:35 METAR KPOU 222235Z 01004KT 2 1/2SM -SN BR BKN007 BKN029 BKN036 01/M01 A3066 RMK
                 AO2 P0001 T00061011 =
2018-02-22 17:16 METAR KPOU 222216Z 02008KT 2 1/2SM -SN BR FEW007 OVC031 01/M01 A3067 RMK AO2
                 P0000 T00061011 =
2018-02-22 16:59 METAR KPOU 222159Z 01007KT 3SM -SN BR BKN007 BKN029 OVC036 01/M01 A3067 RMK AO2
                 P0000 T00061011 =
2018-02-22 16:53 METAR KPOU 222153Z 36006KT 1SM -SN BR SCT007 BKN015 OVC021 01/M01 A3067 RMK AO2
                 SLP383 P0005 T00061011 =
2018-02-22 16:39 METAR KPOU 222139Z 36007KT 1SM -SN BR SCT007 BKN015 OVC021 01/M01 A3065 RMK AO2
                 P0005 T00061011 =
2018-02-22 16:27 METAR KPOU 222127Z 01007KT 1SM -SN BR BKN006 BKN018 OVC026 01/M01 A3064 RMK AO2
                 P0004 T00061006 =
2018-02-22 16:00 METAR KPOU 222100Z 36007KT 1SM -SN BR SCT007 BKN015 OVC021 01/M01 A3064 RMK AO2
                 P0002 T00061006 =
2018-02-22 15:53 METAR KPOU 222053Z 35006KT 2SM -SN BR SCT007 OVC019 01/M01 A3064 RMK AO2
                 RAE01B18E23SNB01E18B23 SLP372 P0006 60015 T00061006 53016 =
2018-02-22 15:39 METAR KPOU 222039Z 33007KT 2SM -SN BR SCT007 OVC018 01/M01 A3064 RMK AO2
                 RAE01B18E23SNB01E18B23 PRESRR P0005 T00061006 =
2018-02-22 15:22 METAR KPOU 222022Z 36007KT 2SM -RA BR FEW007 BKN019 OVC075 01/M01 A3061 RMK AO2
                 RAE01B18SNB01E18 P0003 T00061006 =
2018-02-22 14:53 METAR KPOU 221953Z 36006KT 2SM -RA BR SCT007 BKN060 OVC075 01/M01 A3060 RMK AO2
                 SLP359 P0006 T00111006 =
2018-02-22 14:03 METAR KPOU 221903Z 01006KT 2SM RA BR FEW011 OVC060 02/00 A3060 RMK AO2 P0002
                 T00220000 =
2018-02-22 13:53 METAR KPOU 221853Z 35006KT 4SM -RA BR FEW012 SCT020 OVC055 02/00 A3060 RMK AO2
                 RAE34B52UPB34E52 SLP361 P0003 T00220000 =
2018-02-22 12:53 METAR KPOU 221753Z 01009KT 10SM -RA OVC065 03/01 A3059 RMK AO2 RAB47 SLP356
                 P0000 60002 T00330006 10056 20028 58024 =
2018-02-22 11:53 METAR KPOU 221653Z 03008KT 10SM OVC070 03/00 A3061 RMK AO2 RAB12E35 PRESFR
                 SLP363 P0000 T00330000 =
2018-02-22 10:53 METAR KPOU 221553Z 01009KT 10SM OVC070 03/00 A3066 RMK AO2 RAB03E44 SLP379 P0000
                 T00330000 =
2018-02-22 09:53 METAR KPOU 221453Z 35008KT 10SM OVC070 03/00 A3066 RMK AO2 RAE49 SLP381 P0001
                 60002 T00330000 53020 =
2018-02-22 08:53 METAR KPOU 221353Z 35005KT 10SM -RA OVC075 04/M02 A3063 RMK AO2 RAB1259 SLP369
                 P0001 T00441017 =
2018-02-22 07:53 METAR KPOU 221253Z 02008KT 10SM OVC075 05/M02 A3060 RMK AO2 RAB27E44 SLP359
                 P0000 T00501017 =

Support USWX by starting your Amazon purchase here.